sensor_id;sensor_type;location;lat;lon;timestamp;P1;durP1;ratioP1;P2;durP2;ratioP2
44228;SDS011;29904;51.058;5.378;2023-01-09T00:00:22;0.70;;;0.30;;
44228;SDS011;29904;51.058;5.378;2023-01-09T00:02:49;1.10;;;0.30;;
44228;SDS011;29904;51.058;5.378;2023-01-09T00:05:15;1.30;;;0.30;;
44228;SDS011;29904;51.058;5.378;2023-01-09T00:07:41;1.88;;;0.40;;
44228;SDS011;29904;51.058;5.378;2023-01-09T00:10:07;0.67;;;0.30;;
44228;SDS011;29904;51.058;5.378;2023-01-09T00:12:34;0.40;;;0.20;;
44228;SDS011;29904;51.058;5.378;2023-01-09T00:15:02;1.58;;;0.43;;
44228;SDS011;29904;51.058;5.378;2023-01-09T00:17:28;1.00;;;0.30;;
44228;SDS011;29904;51.058;5.378;2023-01-09T00:19:54;1.20;;;0.30;;
44228;SDS011;29904;51.058;5.378;2023-01-09T00:22:20;1.25;;;0.40;;
44228;SDS011;29904;51.058;5.378;2023-01-09T00:24:46;0.70;;;0.35;;
44228;SDS011;29904;51.058;5.378;2023-01-09T00:27:12;1.00;;;0.40;;
44228;SDS011;29904;51.058;5.378;2023-01-09T00:29:40;1.52;;;0.52;;
44228;SDS011;29904;51.058;5.378;2023-01-09T00:32:06;1.90;;;0.50;;
44228;SDS011;29904;51.058;5.378;2023-01-09T00:34:37;1.60;;;0.60;;
44228;SDS011;29904;51.058;5.378;2023-01-09T00:37:03;1.48;;;0.52;;
44228;SDS011;29904;51.058;5.378;2023-01-09T00:39:35;2.38;;;0.50;;
44228;SDS011;29904;51.058;5.378;2023-01-09T00:42:09;1.85;;;0.55;;
44228;SDS011;29904;51.058;5.378;2023-01-09T00:44:40;1.88;;;0.65;;
44228;SDS011;29904;51.058;5.378;2023-01-09T00:47:22;2.55;;;0.70;;
44228;SDS011;29904;51.058;5.378;2023-01-09T00:49:52;2.45;;;0.68;;
44228;SDS011;29904;51.058;5.378;2023-01-09T00:52:22;0.82;;;0.50;;
44228;SDS011;29904;51.058;5.378;2023-01-09T00:54:48;1.70;;;0.50;;
44228;SDS011;29904;51.058;5.378;2023-01-09T00:57:14;2.67;;;0.60;;
44228;SDS011;29904;51.058;5.378;2023-01-09T00:59:40;2.08;;;0.50;;
44228;SDS011;29904;51.058;5.378;2023-01-09T01:02:07;3.17;;;0.52;;
44228;SDS011;29904;51.058;5.378;2023-01-09T01:04:32;1.45;;;0.50;;
44228;SDS011;29904;51.058;5.378;2023-01-09T01:07:16;2.03;;;0.67;;
44228;SDS011;29904;51.058;5.378;2023-01-09T01:10:01;1.23;;;0.50;;
44228;SDS011;29904;51.058;5.378;2023-01-09T01:12:27;1.58;;;0.50;;
44228;SDS011;29904;51.058;5.378;2023-01-09T01:14:53;0.93;;;0.40;;
44228;SDS011;29904;51.058;5.378;2023-01-09T01:17:19;1.45;;;0.45;;
44228;SDS011;29904;51.058;5.378;2023-01-09T01:19:44;1.67;;;0.50;;
44228;SDS011;29904;51.058;5.378;2023-01-09T01:22:10;1.80;;;0.50;;
44228;SDS011;29904;51.058;5.378;2023-01-09T01:24:36;0.77;;;0.40;;
44228;SDS011;29904;51.058;5.378;2023-01-09T01:27:01;1.37;;;0.40;;
44228;SDS011;29904;51.058;5.378;2023-01-09T01:29:27;3.03;;;0.50;;
44228;SDS011;29904;51.058;5.378;2023-01-09T01:31:53;1.40;;;0.40;;
44228;SDS011;29904;51.058;5.378;2023-01-09T01:34:19;1.73;;;0.40;;
44228;SDS011;29904;51.058;5.378;2023-01-09T01:36:46;1.27;;;0.40;;
44228;SDS011;29904;51.058;5.378;2023-01-09T01:39:12;2.53;;;0.40;;
44228;SDS011;29904;51.058;5.378;2023-01-09T01:41:38;0.80;;;0.40;;
44228;SDS011;29904;51.058;5.378;2023-01-09T01:44:05;1.17;;;0.40;;
44228;SDS011;29904;51.058;5.378;2023-01-09T01:46:51;2.58;;;0.55;;
44228;SDS011;29904;51.058;5.378;2023-01-09T01:49:19;1.35;;;0.50;;
44228;SDS011;29904;51.058;5.378;2023-01-09T01:51:46;1.20;;;0.50;;
44228;SDS011;29904;51.058;5.378;2023-01-09T01:54:25;1.42;;;0.60;;
44228;SDS011;29904;51.058;5.378;2023-01-09T01:56:54;1.13;;;0.50;;
44228;SDS011;29904;51.058;5.378;2023-01-09T01:59:26;1.27;;;0.60;;
44228;SDS011;29904;51.058;5.378;2023-01-09T02:02:01;1.42;;;0.60;;
44228;SDS011;29904;51.058;5.378;2023-01-09T02:04:28;1.23;;;0.63;;
44228;SDS011;29904;51.058;5.378;2023-01-09T02:06:57;2.92;;;0.82;;
44228;SDS011;29904;51.058;5.378;2023-01-09T02:09:27;1.23;;;0.60;;
44228;SDS011;29904;51.058;5.378;2023-01-09T02:11:54;2.00;;;0.70;;
44228;SDS011;29904;51.058;5.378;2023-01-09T02:14:22;2.10;;;0.60;;
44228;SDS011;29904;51.058;5.378;2023-01-09T02:16:53;2.88;;;0.70;;
44228;SDS011;29904;51.058;5.378;2023-01-09T02:30:28;3.53;;;0.80;;
44228;SDS011;29904;51.058;5.378;2023-01-09T02:33:11;2.35;;;0.80;;
44228;SDS011;29904;51.058;5.378;2023-01-09T02:38:28;3.10;;;0.80;;
44228;SDS011;29904;51.058;5.378;2023-01-09T02:41:19;2.22;;;0.75;;
44228;SDS011;29904;51.058;5.378;2023-01-09T02:43:46;1.92;;;0.70;;
44228;SDS011;29904;51.058;5.378;2023-01-09T02:46:19;2.80;;;0.80;;
44228;SDS011;29904;51.058;5.378;2023-01-09T02:48:48;1.88;;;0.90;;
44228;SDS011;29904;51.058;5.378;2023-01-09T02:51:20;2.55;;;0.80;;
44228;SDS011;29904;51.058;5.378;2023-01-09T02:56:30;2.70;;;0.80;;
44228;SDS011;29904;51.058;5.378;2023-01-09T02:59:10;3.10;;;0.82;;
44228;SDS011;29904;51.058;5.378;2023-01-09T03:09:59;1.77;;;0.60;;
44228;SDS011;29904;51.058;5.378;2023-01-09T03:12:34;3.05;;;0.75;;
44228;SDS011;29904;51.058;5.378;2023-01-09T03:15:02;4.00;;;0.90;;
44228;SDS011;29904;51.058;5.378;2023-01-09T03:17:31;6.18;;;0.80;;
44228;SDS011;29904;51.058;5.378;2023-01-09T03:20:03;2.90;;;0.77;;
44228;SDS011;29904;51.058;5.378;2023-01-09T03:22:34;2.67;;;0.90;;
44228;SDS011;29904;51.058;5.378;2023-01-09T03:25:00;2.47;;;0.63;;
44228;SDS011;29904;51.058;5.378;2023-01-09T03:27:26;2.17;;;0.80;;
44228;SDS011;29904;51.058;5.378;2023-01-09T03:29:54;3.33;;;0.60;;
44228;SDS011;29904;51.058;5.378;2023-01-09T03:32:20;4.72;;;0.80;;
44228;SDS011;29904;51.058;5.378;2023-01-09T03:34:46;3.03;;;0.80;;
44228;SDS011;29904;51.058;5.378;2023-01-09T03:37:12;3.95;;;0.90;;
44228;SDS011;29904;51.058;5.378;2023-01-09T03:39:37;3.35;;;0.75;;
44228;SDS011;29904;51.058;5.378;2023-01-09T03:42:03;3.93;;;0.70;;
44228;SDS011;29904;51.058;5.378;2023-01-09T03:44:29;2.77;;;0.70;;
44228;SDS011;29904;51.058;5.378;2023-01-09T03:46:56;3.90;;;0.60;;
44228;SDS011;29904;51.058;5.378;2023-01-09T03:49:22;2.65;;;0.70;;
44228;SDS011;29904;51.058;5.378;2023-01-09T03:51:48;2.13;;;0.63;;
44228;SDS011;29904;51.058;5.378;2023-01-09T03:54:14;4.73;;;0.70;;
44228;SDS011;29904;51.058;5.378;2023-01-09T03:56:40;3.80;;;0.60;;
44228;SDS011;29904;51.058;5.378;2023-01-09T03:59:05;2.00;;;0.63;;
44228;SDS011;29904;51.058;5.378;2023-01-09T04:01:33;5.18;;;0.70;;
44228;SDS011;29904;51.058;5.378;2023-01-09T04:03:59;4.97;;;0.85;;
44228;SDS011;29904;51.058;5.378;2023-01-09T04:06:24;4.53;;;0.90;;
44228;SDS011;29904;51.058;5.378;2023-01-09T04:08:50;3.55;;;1.00;;
44228;SDS011;29904;51.058;5.378;2023-01-09T04:11:16;3.00;;;0.77;;
44228;SDS011;29904;51.058;5.378;2023-01-09T04:13:42;4.22;;;0.73;;
44228;SDS011;29904;51.058;5.378;2023-01-09T04:16:09;3.67;;;0.70;;
44228;SDS011;29904;51.058;5.378;2023-01-09T04:18:34;3.75;;;0.60;;
44228;SDS011;29904;51.058;5.378;2023-01-09T04:21:00;4.50;;;0.90;;
44228;SDS011;29904;51.058;5.378;2023-01-09T04:23:26;1.73;;;0.60;;
44228;SDS011;29904;51.058;5.378;2023-01-09T04:25:51;3.75;;;0.82;;
44228;SDS011;29904;51.058;5.378;2023-01-09T04:28:17;2.40;;;0.77;;
44228;SDS011;29904;51.058;5.378;2023-01-09T04:30:43;4.45;;;0.85;;
44228;SDS011;29904;51.058;5.378;2023-01-09T04:33:11;3.22;;;0.80;;
44228;SDS011;29904;51.058;5.378;2023-01-09T04:35:36;4.23;;;0.80;;
44228;SDS011;29904;51.058;5.378;2023-01-09T04:38:02;3.43;;;0.60;;
44228;SDS011;29904;51.058;5.378;2023-01-09T04:40:30;3.33;;;0.70;;
44228;SDS011;29904;51.058;5.378;2023-01-09T04:42:56;4.23;;;0.60;;
44228;SDS011;29904;51.058;5.378;2023-01-09T04:45:21;4.33;;;1.10;;
44228;SDS011;29904;51.058;5.378;2023-01-09T04:47:47;3.60;;;0.60;;
44228;SDS011;29904;51.058;5.378;2023-01-09T04:50:13;5.23;;;0.80;;
44228;SDS011;29904;51.058;5.378;2023-01-09T04:52:39;4.03;;;0.90;;
44228;SDS011;29904;51.058;5.378;2023-01-09T04:55:05;3.23;;;0.63;;
44228;SDS011;29904;51.058;5.378;2023-01-09T04:57:32;4.53;;;0.82;;
44228;SDS011;29904;51.058;5.378;2023-01-09T04:59:58;2.53;;;0.68;;
44228;SDS011;29904;51.058;5.378;2023-01-09T05:02:24;4.20;;;0.70;;
44228;SDS011;29904;51.058;5.378;2023-01-09T05:04:51;3.80;;;0.80;;
44228;SDS011;29904;51.058;5.378;2023-01-09T05:07:17;4.18;;;0.60;;
44228;SDS011;29904;51.058;5.378;2023-01-09T05:09:43;3.67;;;0.80;;
44228;SDS011;29904;51.058;5.378;2023-01-09T05:12:09;3.47;;;0.60;;
44228;SDS011;29904;51.058;5.378;2023-01-09T05:14:34;3.08;;;0.80;;
44228;SDS011;29904;51.058;5.378;2023-01-09T05:17:00;4.00;;;1.00;;
44228;SDS011;29904;51.058;5.378;2023-01-09T05:19:26;3.00;;;0.80;;
44228;SDS011;29904;51.058;5.378;2023-01-09T05:21:52;4.80;;;0.75;;
44228;SDS011;29904;51.058;5.378;2023-01-09T05:24:17;4.82;;;0.98;;
44228;SDS011;29904;51.058;5.378;2023-01-09T05:26:45;5.45;;;0.80;;
44228;SDS011;29904;51.058;5.378;2023-01-09T05:29:11;3.75;;;1.00;;
44228;SDS011;29904;51.058;5.378;2023-01-09T05:31:37;4.15;;;0.85;;
44228;SDS011;29904;51.058;5.378;2023-01-09T05:34:03;4.53;;;1.00;;
44228;SDS011;29904;51.058;5.378;2023-01-09T05:36:28;5.80;;;1.30;;
44228;SDS011;29904;51.058;5.378;2023-01-09T05:38:54;3.23;;;1.00;;
44228;SDS011;29904;51.058;5.378;2023-01-09T05:41:22;5.45;;;0.95;;
44228;SDS011;29904;51.058;5.378;2023-01-09T05:43:48;4.57;;;0.90;;
44228;SDS011;29904;51.058;5.378;2023-01-09T05:46:14;6.30;;;0.82;;
44228;SDS011;29904;51.058;5.378;2023-01-09T05:48:41;5.28;;;0.90;;
44228;SDS011;29904;51.058;5.378;2023-01-09T05:51:08;3.03;;;0.90;;
44228;SDS011;29904;51.058;5.378;2023-01-09T05:53:34;5.88;;;1.00;;
44228;SDS011;29904;51.058;5.378;2023-01-09T05:56:00;5.68;;;1.40;;
44228;SDS011;29904;51.058;5.378;2023-01-09T05:58:25;4.40;;;1.10;;
44228;SDS011;29904;51.058;5.378;2023-01-09T06:00:54;6.40;;;1.10;;
44228;SDS011;29904;51.058;5.378;2023-01-09T06:03:20;7.38;;;1.50;;
44228;SDS011;29904;51.058;5.378;2023-01-09T06:05:45;6.90;;;0.90;;
44228;SDS011;29904;51.058;5.378;2023-01-09T06:08:11;5.70;;;0.90;;
44228;SDS011;29904;51.058;5.378;2023-01-09T06:10:36;7.05;;;1.30;;
44228;SDS011;29904;51.058;5.378;2023-01-09T06:13:02;7.93;;;1.20;;
44228;SDS011;29904;51.058;5.378;2023-01-09T06:15:28;5.00;;;0.80;;
44228;SDS011;29904;51.058;5.378;2023-01-09T06:17:55;6.22;;;1.15;;
44228;SDS011;29904;51.058;5.378;2023-01-09T06:20:21;8.05;;;1.00;;
44228;SDS011;29904;51.058;5.378;2023-01-09T06:22:47;2.88;;;0.75;;
44228;SDS011;29904;51.058;5.378;2023-01-09T06:25:15;5.13;;;0.90;;
44228;SDS011;29904;51.058;5.378;2023-01-09T06:27:41;4.22;;;0.90;;
44228;SDS011;29904;51.058;5.378;2023-01-09T06:30:07;5.68;;;0.93;;
44228;SDS011;29904;51.058;5.378;2023-01-09T06:32:33;5.40;;;1.02;;
44228;SDS011;29904;51.058;5.378;2023-01-09T06:34:59;4.43;;;0.90;;
44228;SDS011;29904;51.058;5.378;2023-01-09T06:37:25;6.13;;;1.23;;
44228;SDS011;29904;51.058;5.378;2023-01-09T06:39:50;5.20;;;1.07;;
44228;SDS011;29904;51.058;5.378;2023-01-09T06:42:18;4.15;;;0.75;;
44228;SDS011;29904;51.058;5.378;2023-01-09T06:44:43;5.28;;;1.00;;
44228;SDS011;29904;51.058;5.378;2023-01-09T06:47:09;5.97;;;0.95;;
44228;SDS011;29904;51.058;5.378;2023-01-09T06:49:35;4.38;;;1.00;;
44228;SDS011;29904;51.058;5.378;2023-01-09T06:52:00;3.20;;;1.00;;
44228;SDS011;29904;51.058;5.378;2023-01-09T06:54:31;4.47;;;1.07;;
44228;SDS011;29904;51.058;5.378;2023-01-09T06:56:58;4.63;;;1.10;;
44228;SDS011;29904;51.058;5.378;2023-01-09T06:59:23;3.50;;;0.88;;
44228;SDS011;29904;51.058;5.378;2023-01-09T07:01:49;4.13;;;1.10;;
44228;SDS011;29904;51.058;5.378;2023-01-09T07:04:15;6.65;;;1.00;;
44228;SDS011;29904;51.058;5.378;2023-01-09T07:06:42;5.07;;;1.00;;
44228;SDS011;29904;51.058;5.378;2023-01-09T07:09:07;7.00;;;1.10;;
44228;SDS011;29904;51.058;5.378;2023-01-09T07:11:37;6.40;;;1.00;;
44228;SDS011;29904;51.058;5.378;2023-01-09T07:14:03;4.65;;;0.90;;
44228;SDS011;29904;51.058;5.378;2023-01-09T07:16:29;7.22;;;1.02;;
44228;SDS011;29904;51.058;5.378;2023-01-09T07:18:55;4.25;;;0.82;;
44228;SDS011;29904;51.058;5.378;2023-01-09T07:21:21;5.55;;;0.90;;
44228;SDS011;29904;51.058;5.378;2023-01-09T07:23:47;4.43;;;0.90;;
44228;SDS011;29904;51.058;5.378;2023-01-09T07:26:12;4.43;;;0.85;;
44228;SDS011;29904;51.058;5.378;2023-01-09T07:28:38;5.10;;;1.00;;
44228;SDS011;29904;51.058;5.378;2023-01-09T07:31:04;7.03;;;0.90;;
44228;SDS011;29904;51.058;5.378;2023-01-09T07:33:31;3.83;;;0.90;;
44228;SDS011;29904;51.058;5.378;2023-01-09T07:35:58;5.10;;;0.80;;
44228;SDS011;29904;51.058;5.378;2023-01-09T07:38:23;4.53;;;1.08;;
44228;SDS011;29904;51.058;5.378;2023-01-09T07:40:49;5.53;;;0.90;;
44228;SDS011;29904;51.058;5.378;2023-01-09T07:43:15;4.40;;;0.75;;
44228;SDS011;29904;51.058;5.378;2023-01-09T07:45:41;4.30;;;0.85;;
44228;SDS011;29904;51.058;5.378;2023-01-09T07:48:07;3.22;;;0.85;;
44228;SDS011;29904;51.058;5.378;2023-01-09T07:50:32;4.63;;;0.90;;
44228;SDS011;29904;51.058;5.378;2023-01-09T07:52:58;5.93;;;1.20;;
44228;SDS011;29904;51.058;5.378;2023-01-09T07:55:26;4.25;;;0.90;;
44228;SDS011;29904;51.058;5.378;2023-01-09T07:57:51;4.93;;;0.85;;
44228;SDS011;29904;51.058;5.378;2023-01-09T08:00:18;2.88;;;0.73;;
44228;SDS011;29904;51.058;5.378;2023-01-09T08:02:50;5.30;;;0.80;;
44228;SDS011;29904;51.058;5.378;2023-01-09T08:05:17;4.53;;;0.90;;
44228;SDS011;29904;51.058;5.378;2023-01-09T08:07:43;3.22;;;0.70;;
44228;SDS011;29904;51.058;5.378;2023-01-09T08:10:09;4.38;;;0.98;;
44228;SDS011;29904;51.058;5.378;2023-01-09T08:12:35;4.50;;;0.80;;
44228;SDS011;29904;51.058;5.378;2023-01-09T08:15:01;4.03;;;0.93;;
44228;SDS011;29904;51.058;5.378;2023-01-09T08:17:29;4.80;;;1.05;;
44228;SDS011;29904;51.058;5.378;2023-01-09T08:19:54;4.47;;;1.00;;
44228;SDS011;29904;51.058;5.378;2023-01-09T08:22:20;4.65;;;1.02;;
44228;SDS011;29904;51.058;5.378;2023-01-09T08:24:46;3.63;;;0.95;;
44228;SDS011;29904;51.058;5.378;2023-01-09T08:27:12;4.63;;;1.05;;
44228;SDS011;29904;51.058;5.378;2023-01-09T08:29:37;4.47;;;0.90;;
44228;SDS011;29904;51.058;5.378;2023-01-09T08:32:03;4.17;;;0.73;;
44228;SDS011;29904;51.058;5.378;2023-01-09T08:34:29;3.90;;;0.90;;
44228;SDS011;29904;51.058;5.378;2023-01-09T08:36:56;4.60;;;0.90;;
44228;SDS011;29904;51.058;5.378;2023-01-09T08:39:22;3.40;;;0.90;;
44228;SDS011;29904;51.058;5.378;2023-01-09T08:41:50;3.80;;;0.82;;
44228;SDS011;29904;51.058;5.378;2023-01-09T08:44:36;2.70;;;0.80;;
44228;SDS011;29904;51.058;5.378;2023-01-09T08:47:21;5.68;;;0.88;;
44228;SDS011;29904;51.058;5.378;2023-01-09T08:49:48;3.65;;;0.77;;
44228;SDS011;29904;51.058;5.378;2023-01-09T08:52:13;4.80;;;0.80;;
44228;SDS011;29904;51.058;5.378;2023-01-09T08:54:39;4.55;;;1.00;;
44228;SDS011;29904;51.058;5.378;2023-01-09T08:57:05;3.40;;;1.20;;
44228;SDS011;29904;51.058;5.378;2023-01-09T08:59:32;6.00;;;1.60;;
44228;SDS011;29904;51.058;5.378;2023-01-09T09:01:58;5.65;;;1.30;;
44228;SDS011;29904;51.058;5.378;2023-01-09T09:04:24;5.03;;;1.00;;
44228;SDS011;29904;51.058;5.378;2023-01-09T09:06:50;4.20;;;1.10;;
44228;SDS011;29904;51.058;5.378;2023-01-09T09:09:15;6.60;;;1.00;;
44228;SDS011;29904;51.058;5.378;2023-01-09T09:11:41;4.88;;;0.90;;
44228;SDS011;29904;51.058;5.378;2023-01-09T09:14:11;4.70;;;1.00;;
44228;SDS011;29904;51.058;5.378;2023-01-09T09:16:55;3.20;;;0.90;;
44228;SDS011;29904;51.058;5.378;2023-01-09T09:19:21;2.45;;;0.80;;
44228;SDS011;29904;51.058;5.378;2023-01-09T09:21:46;3.22;;;0.93;;
44228;SDS011;29904;51.058;5.378;2023-01-09T09:24:12;3.55;;;1.08;;
44228;SDS011;29904;51.058;5.378;2023-01-09T09:26:38;2.83;;;1.02;;
44228;SDS011;29904;51.058;5.378;2023-01-09T09:29:04;4.00;;;1.10;;
44228;SDS011;29904;51.058;5.378;2023-01-09T09:31:30;2.72;;;0.82;;
44228;SDS011;29904;51.058;5.378;2023-01-09T09:33:57;4.18;;;0.90;;
44228;SDS011;29904;51.058;5.378;2023-01-09T09:36:23;4.20;;;0.90;;
44228;SDS011;29904;51.058;5.378;2023-01-09T09:38:49;2.88;;;0.90;;
44228;SDS011;29904;51.058;5.378;2023-01-09T09:55:13;4.95;;;0.90;;
44228;SDS011;29904;51.058;5.378;2023-01-09T09:57:48;3.60;;;0.73;;
44228;SDS011;29904;51.058;5.378;2023-01-09T10:00:16;3.20;;;0.80;;
44228;SDS011;29904;51.058;5.378;2023-01-09T10:02:48;3.75;;;0.90;;
44228;SDS011;29904;51.058;5.378;2023-01-09T10:05:39;4.25;;;0.80;;
44228;SDS011;29904;51.058;5.378;2023-01-09T10:08:14;2.70;;;0.70;;
44228;SDS011;29904;51.058;5.378;2023-01-09T10:10:49;2.47;;;0.70;;
44228;SDS011;29904;51.058;5.378;2023-01-09T10:13:18;1.95;;;0.52;;
44228;SDS011;29904;51.058;5.378;2023-01-09T10:24:31;1.88;;;0.47;;
44228;SDS011;29904;51.058;5.378;2023-01-09T10:33:01;1.58;;;0.55;;
44228;SDS011;29904;51.058;5.378;2023-01-09T10:35:50;2.90;;;0.45;;
44228;SDS011;29904;51.058;5.378;2023-01-09T10:38:28;2.20;;;0.60;;
44228;SDS011;29904;51.058;5.378;2023-01-09T10:41:05;2.20;;;0.40;;
44228;SDS011;29904;51.058;5.378;2023-01-09T10:43:54;1.80;;;0.60;;
44228;SDS011;29904;51.058;5.378;2023-01-09T10:46:26;2.40;;;0.60;;
44228;SDS011;29904;51.058;5.378;2023-01-09T10:48:59;1.85;;;0.50;;
44228;SDS011;29904;51.058;5.378;2023-01-09T10:51:31;2.28;;;0.60;;
44228;SDS011;29904;51.058;5.378;2023-01-09T10:54:22;1.80;;;0.45;;
44228;SDS011;29904;51.058;5.378;2023-01-09T10:59:23;2.23;;;0.60;;
44228;SDS011;29904;51.058;5.378;2023-01-09T11:01:49;2.85;;;0.60;;
44228;SDS011;29904;51.058;5.378;2023-01-09T11:04:25;2.08;;;0.50;;
44228;SDS011;29904;51.058;5.378;2023-01-09T11:07:04;1.50;;;0.52;;
44228;SDS011;29904;51.058;5.378;2023-01-09T11:12:28;1.38;;;0.40;;
44228;SDS011;29904;51.058;5.378;2023-01-09T11:15:12;2.97;;;0.57;;
44228;SDS011;29904;51.058;5.378;2023-01-09T11:17:43;2.72;;;0.60;;
44228;SDS011;29904;51.058;5.378;2023-01-09T11:20:19;1.40;;;0.50;;
44228;SDS011;29904;51.058;5.378;2023-01-09T11:22:51;3.05;;;0.70;;
44228;SDS011;29904;51.058;5.378;2023-01-09T11:25:20;2.25;;;0.70;;
44228;SDS011;29904;51.058;5.378;2023-01-09T11:30:25;2.58;;;0.63;;
44228;SDS011;29904;51.058;5.378;2023-01-09T11:32:53;1.95;;;0.50;;
44228;SDS011;29904;51.058;5.378;2023-01-09T11:35:24;2.55;;;0.52;;
44228;SDS011;29904;51.058;5.378;2023-01-09T11:38:01;1.45;;;0.70;;
44228;SDS011;29904;51.058;5.378;2023-01-09T11:40:53;2.25;;;0.60;;
44228;SDS011;29904;51.058;5.378;2023-01-09T11:45:55;2.42;;;0.50;;
44228;SDS011;29904;51.058;5.378;2023-01-09T11:48:29;1.42;;;0.50;;
44228;SDS011;29904;51.058;5.378;2023-01-09T11:51:04;1.80;;;0.50;;
44228;SDS011;29904;51.058;5.378;2023-01-09T11:53:54;2.05;;;0.60;;
44228;SDS011;29904;51.058;5.378;2023-01-09T11:56:23;1.60;;;0.52;;
44228;SDS011;29904;51.058;5.378;2023-01-09T11:58:49;2.50;;;0.90;;
44228;SDS011;29904;51.058;5.378;2023-01-09T12:17:56;1.90;;;0.70;;
44228;SDS011;29904;51.058;5.378;2023-01-09T12:20:43;1.90;;;0.70;;
44228;SDS011;29904;51.058;5.378;2023-01-09T12:42:00;4.90;;;1.20;;
44228;SDS011;29904;51.058;5.378;2023-01-09T12:44:52;3.88;;;1.00;;
44228;SDS011;29904;51.058;5.378;2023-01-09T12:52:50;3.30;;;1.30;;
44228;SDS011;29904;51.058;5.378;2023-01-09T12:55:26;3.87;;;1.30;;
44228;SDS011;29904;51.058;5.378;2023-01-09T12:58:06;3.40;;;1.20;;
44228;SDS011;29904;51.058;5.378;2023-01-09T13:00:58;4.20;;;1.10;;
44228;SDS011;29904;51.058;5.378;2023-01-09T13:03:49;4.05;;;1.25;;
44228;SDS011;29904;51.058;5.378;2023-01-09T13:06:52;4.45;;;1.27;;
44228;SDS011;29904;51.058;5.378;2023-01-09T13:09:24;3.55;;;1.25;;
44228;SDS011;29904;51.058;5.378;2023-01-09T13:12:06;4.47;;;1.37;;
44228;SDS011;29904;51.058;5.378;2023-01-09T13:17:35;3.58;;;1.10;;
44228;SDS011;29904;51.058;5.378;2023-01-09T13:20:15;3.40;;;1.15;;
44228;SDS011;29904;51.058;5.378;2023-01-09T13:23:03;4.18;;;1.10;;
44228;SDS011;29904;51.058;5.378;2023-01-09T13:28:00;4.57;;;1.20;;
44228;SDS011;29904;51.058;5.378;2023-01-09T13:33:27;2.80;;;1.20;;
44228;SDS011;29904;51.058;5.378;2023-01-09T13:35:57;3.70;;;1.10;;
44228;SDS011;29904;51.058;5.378;2023-01-09T13:38:24;4.85;;;1.10;;
44228;SDS011;29904;51.058;5.378;2023-01-09T13:43:59;6.28;;;1.40;;
44228;SDS011;29904;51.058;5.378;2023-01-09T13:49:29;3.87;;;1.30;;
44228;SDS011;29904;51.058;5.378;2023-01-09T13:59:44;4.55;;;1.38;;
44228;SDS011;29904;51.058;5.378;2023-01-09T14:05:03;6.82;;;1.75;;
44228;SDS011;29904;51.058;5.378;2023-01-09T14:07:45;4.10;;;1.30;;
44228;SDS011;29904;51.058;5.378;2023-01-09T14:10:29;4.18;;;1.80;;
44228;SDS011;29904;51.058;5.378;2023-01-09T14:13:02;5.28;;;1.98;;
44228;SDS011;29904;51.058;5.378;2023-01-09T14:15:36;4.13;;;1.65;;
44228;SDS011;29904;51.058;5.378;2023-01-09T14:18:06;5.70;;;1.60;;
44228;SDS011;29904;51.058;5.378;2023-01-09T14:20:42;5.50;;;1.80;;
44228;SDS011;29904;51.058;5.378;2023-01-09T14:23:21;7.15;;;2.30;;
44228;SDS011;29904;51.058;5.378;2023-01-09T14:26:13;3.53;;;1.60;;
44228;SDS011;29904;51.058;5.378;2023-01-09T14:28:44;5.50;;;1.90;;
44228;SDS011;29904;51.058;5.378;2023-01-09T14:31:25;7.65;;;2.58;;
44228;SDS011;29904;51.058;5.378;2023-01-09T14:34:16;5.95;;;2.42;;
44228;SDS011;29904;51.058;5.378;2023-01-09T14:36:52;6.13;;;1.48;;
44228;SDS011;29904;51.058;5.378;2023-01-09T14:39:21;5.93;;;1.70;;
44228;SDS011;29904;51.058;5.378;2023-01-09T14:41:52;4.22;;;1.70;;
44228;SDS011;29904;51.058;5.378;2023-01-09T14:44:29;3.78;;;1.63;;
44228;SDS011;29904;51.058;5.378;2023-01-09T14:49:59;4.53;;;1.60;;
44228;SDS011;29904;51.058;5.378;2023-01-09T14:52:39;4.75;;;1.42;;
44228;SDS011;29904;51.058;5.378;2023-01-09T14:55:33;5.07;;;1.60;;
44228;SDS011;29904;51.058;5.378;2023-01-09T14:58:11;3.90;;;1.42;;
44228;SDS011;29904;51.058;5.378;2023-01-09T15:00:51;4.68;;;1.30;;
44228;SDS011;29904;51.058;5.378;2023-01-09T15:03:17;4.55;;;1.55;;
44228;SDS011;29904;51.058;5.378;2023-01-09T15:05:44;4.30;;;1.45;;
44228;SDS011;29904;51.058;5.378;2023-01-09T15:08:12;6.22;;;1.80;;
44228;SDS011;29904;51.058;5.378;2023-01-09T15:10:42;6.03;;;1.70;;
44228;SDS011;29904;51.058;5.378;2023-01-09T15:13:12;4.83;;;1.70;;
44228;SDS011;29904;51.058;5.378;2023-01-09T15:15:44;5.65;;;1.95;;
44228;SDS011;29904;51.058;5.378;2023-01-09T15:18:11;7.07;;;2.10;;
44228;SDS011;29904;51.058;5.378;2023-01-09T15:20:45;6.43;;;2.50;;
44228;SDS011;29904;51.058;5.378;2023-01-09T15:23:22;5.20;;;2.10;;
44228;SDS011;29904;51.058;5.378;2023-01-09T15:25:49;4.10;;;1.73;;
44228;SDS011;29904;51.058;5.378;2023-01-09T15:31:13;5.72;;;1.75;;
44228;SDS011;29904;51.058;5.378;2023-01-09T15:33:42;6.95;;;1.50;;
44228;SDS011;29904;51.058;5.378;2023-01-09T15:36:14;6.75;;;1.60;;
44228;SDS011;29904;51.058;5.378;2023-01-09T15:38:43;4.90;;;1.40;;
44228;SDS011;29904;51.058;5.378;2023-01-09T15:41:11;4.18;;;1.40;;
44228;SDS011;29904;51.058;5.378;2023-01-09T15:44:03;6.47;;;1.55;;
44228;SDS011;29904;51.058;5.378;2023-01-09T15:46:35;4.70;;;1.50;;
44228;SDS011;29904;51.058;5.378;2023-01-09T15:49:04;9.77;;;3.35;;
44228;SDS011;29904;51.058;5.378;2023-01-09T15:51:29;8.25;;;3.83;;
44228;SDS011;29904;51.058;5.378;2023-01-09T15:53:56;4.78;;;2.20;;
44228;SDS011;29904;51.058;5.378;2023-01-09T15:56:27;5.38;;;1.45;;
44228;SDS011;29904;51.058;5.378;2023-01-09T15:58:55;7.23;;;1.70;;
44228;SDS011;29904;51.058;5.378;2023-01-09T16:04:04;7.93;;;1.88;;
44228;SDS011;29904;51.058;5.378;2023-01-09T16:06:43;4.07;;;1.38;;
44228;SDS011;29904;51.058;5.378;2023-01-09T16:11:45;4.53;;;1.70;;
44228;SDS011;29904;51.058;5.378;2023-01-09T16:14:19;5.40;;;2.30;;
44228;SDS011;29904;51.058;5.378;2023-01-09T16:16:57;7.72;;;2.20;;
44228;SDS011;29904;51.058;5.378;2023-01-09T16:22:19;5.72;;;2.45;;
44228;SDS011;29904;51.058;5.378;2023-01-09T16:24:45;7.60;;;2.67;;
44228;SDS011;29904;51.058;5.378;2023-01-09T16:29:53;6.75;;;2.40;;
44228;SDS011;29904;51.058;5.378;2023-01-09T16:32:25;7.32;;;2.95;;
44228;SDS011;29904;51.058;5.378;2023-01-09T16:34:54;8.20;;;2.20;;
44228;SDS011;29904;51.058;5.378;2023-01-09T16:37:22;8.52;;;2.72;;
44228;SDS011;29904;51.058;5.378;2023-01-09T16:40:34;9.63;;;3.60;;
44228;SDS011;29904;51.058;5.378;2023-01-09T16:42:37;7.00;;;3.10;;
44228;SDS011;29904;51.058;5.378;2023-01-09T16:45:23;7.30;;;3.55;;
44228;SDS011;29904;51.058;5.378;2023-01-09T16:47:50;8.90;;;3.03;;
44228;SDS011;29904;51.058;5.378;2023-01-09T16:50:16;6.45;;;3.13;;
44228;SDS011;29904;51.058;5.378;2023-01-09T16:52:42;10.43;;;3.80;;
44228;SDS011;29904;51.058;5.378;2023-01-09T16:55:09;8.85;;;3.75;;
44228;SDS011;29904;51.058;5.378;2023-01-09T16:57:35;7.35;;;2.78;;
44228;SDS011;29904;51.058;5.378;2023-01-09T17:00:02;5.53;;;3.00;;
44228;SDS011;29904;51.058;5.378;2023-01-09T17:02:28;7.95;;;3.20;;
44228;SDS011;29904;51.058;5.378;2023-01-09T17:04:54;9.75;;;3.00;;
44228;SDS011;29904;51.058;5.378;2023-01-09T17:07:20;6.95;;;3.00;;
44228;SDS011;29904;51.058;5.378;2023-01-09T17:09:49;7.10;;;3.00;;
44228;SDS011;29904;51.058;5.378;2023-01-09T17:12:20;7.85;;;2.63;;
44228;SDS011;29904;51.058;5.378;2023-01-09T17:14:48;10.30;;;2.67;;
44228;SDS011;29904;51.058;5.378;2023-01-09T17:17:16;5.40;;;2.53;;
44228;SDS011;29904;51.058;5.378;2023-01-09T17:19:42;7.40;;;2.80;;
44228;SDS011;29904;51.058;5.378;2023-01-09T17:22:10;8.50;;;2.70;;
44228;SDS011;29904;51.058;5.378;2023-01-09T17:24:37;5.63;;;2.50;;
44228;SDS011;29904;51.058;5.378;2023-01-09T17:27:25;5.80;;;2.50;;
44228;SDS011;29904;51.058;5.378;2023-01-09T17:30:13;6.72;;;2.75;;